Terminal Aerodrome Forecast
Issued by NWS Cleveland, OH

Home | Current Version | Previous Version | Text Only | Print | Product List | Glossary Off
Versions: 1 2 3 4 5 6 7 8 9 10 11 12 13 14 15 16 17

000
FTUS41 KCLE 101125
TAFMFD
TAF
KMFD 101125Z 1012/1112 23012KT P6SM OVC015
      TEMPO 1012/1015 OVC010
     FM101600 23012G20KT P6SM BKN050
     FM110000 23008KT P6SM OVC040
     FM110400 26008KT P6SM BKN030
     FM110800 29005KT P6SM OVC015=

USA.gov is the U.S. government's official web portal to all federal, state and local government web resources and services.